Time;durP1;ratioP1;P1;durP2;ratioP2;P2;SDS_P1;SDS_P2;PMS_P1;PMS_P2;Temp;Humidity;BMP_temperature;BMP_pressure;BME280_temperature;BME280_humidity;BME280_pressure;Samples;Min_cycle;Max_cycle;Signal;HPM_P1;HPM_P2
2022/03/29 00:02:23;;;;;;;1.27;1.20;;;1.40;99.90;;;;;;6172119;28;20306;-84
2022/03/29 00:05:29;;;;;;;1.20;1.20;;;1.30;99.90;;;;;;6157287;28;20573;-84
2022/03/29 00:08:34;;;;;;;1.10;1.10;;;1.20;99.90;;;;;;6171215;28;20558;-83
2022/03/29 00:11:39;;;;;;;1.30;1.07;;;1.20;99.90;;;;;;6171587;28;20296;-83
2022/03/29 00:14:45;;;;;;;2.00;1.23;;;1.20;99.90;;;;;;6188421;28;20298;-83
2022/03/29 00:17:52;;;;;;;2.10;1.13;;;1.30;99.90;;;;;;6171331;28;20302;-83
2022/03/29 00:20:58;;;;;;;1.00;1.00;;;1.40;99.90;;;;;;6172283;28;20295;-83
2022/03/29 00:24:04;;;;;;;1.07;1.07;;;1.30;99.90;;;;;;6170822;28;20297;-83
2022/03/29 00:27:09;;;;;;;1.00;1.00;;;1.30;99.90;;;;;;6188680;28;20295;-82
2022/03/29 00:30:16;;;;;;;1.27;1.23;;;1.30;99.90;;;;;;6189016;28;20573;-82
2022/03/29 00:33:23;;;;;;;1.23;1.23;;;1.40;99.90;;;;;;6187921;28;20616;-82
2022/03/29 00:36:29;;;;;;;1.43;1.17;;;1.30;99.90;;;;;;6170935;28;20474;-83
2022/03/29 00:39:34;;;;;;;1.00;1.00;;;1.20;99.90;;;;;;6187759;28;20584;-83
2022/03/29 00:42:40;;;;;;;0.90;0.90;;;1.20;99.90;;;;;;6170509;28;20301;-83
2022/03/29 00:45:46;;;;;;;2.27;1.50;;;1.20;99.90;;;;;;6188436;28;20305;-82
2022/03/29 00:48:54;;;;;;;1.50;1.40;;;1.20;99.90;;;;;;6171094;28;20593;-82
2022/03/29 00:52:03;;;;;;;1.43;1.40;;;1.10;99.90;;;;;;6188759;28;20294;-83
2022/03/29 00:55:13;;;;;;;1.00;1.00;;;1.00;99.90;;;;;;6187944;28;20288;-83
2022/03/29 00:58:19;;;;;;;1.80;1.20;;;0.90;99.90;;;;;;6187178;28;20298;-82
2022/03/29 01:01:25;;;;;;;1.90;1.10;;;1.10;99.90;;;;;;6186945;28;20462;-83
2022/03/29 01:04:31;;;;;;;1.33;1.30;;;0.90;99.90;;;;;;6170545;28;20320;-82
2022/03/29 01:07:37;;;;;;;1.20;1.20;;;0.90;99.90;;;;;;6170119;28;20302;-82
2022/03/29 01:10:45;;;;;;;1.50;1.20;;;1.00;99.90;;;;;;6188098;28;20457;-82
2022/03/29 01:13:50;;;;;;;1.30;1.20;;;1.00;99.90;;;;;;6187166;28;20293;-82
2022/03/29 01:20:24;;;;;;;1.23;1.13;;;0.70;99.90;;;;;;6187236;28;20291;-82
2022/03/29 01:23:33;;;;;;;1.60;1.20;;;0.60;99.90;;;;;;6186387;28;20305;-82
2022/03/29 01:26:40;;;;;;;2.17;1.10;;;0.50;99.90;;;;;;6187411;28;20580;-82
2022/03/29 01:29:45;;;;;;;4.67;1.30;;;0.60;99.90;;;;;;6186554;28;20311;-83
2022/03/29 01:32:52;;;;;;;1.93;1.30;;;0.50;99.90;;;;;;6185891;28;20310;-82
2022/03/29 01:35:58;;;;;;;3.03;1.30;;;0.50;99.90;;;;;;6187170;28;20286;-81
2022/03/29 01:39:06;;;;;;;1.30;1.20;;;0.50;99.90;;;;;;6169471;28;20284;-83
2022/03/29 01:42:11;;;;;;;2.03;1.20;;;0.50;99.90;;;;;;6153602;28;20303;-82
2022/03/29 01:45:17;;;;;;;1.10;1.10;;;0.50;99.90;;;;;;6170025;28;20300;-83
2022/03/29 01:48:23;;;;;;;1.37;1.30;;;0.40;99.90;;;;;;6186299;28;20293;-82
2022/03/29 01:51:29;;;;;;;1.47;1.37;;;0.30;99.90;;;;;;6186898;28;20609;-82
2022/03/29 01:54:36;;;;;;;1.20;1.20;;;0.50;99.90;;;;;;6186336;28;20300;-82
2022/03/29 01:57:42;;;;;;;1.50;1.40;;;0.40;99.90;;;;;;6169106;28;20299;-82
2022/03/29 02:00:47;;;;;;;0.93;0.93;;;0.50;99.90;;;;;;6185014;28;20584;-83
2022/03/29 02:03:53;;;;;;;5.10;1.40;;;0.70;99.90;;;;;;6168867;28;20302;-82
2022/03/29 02:07:01;;;;;;;2.10;1.40;;;0.70;99.90;;;;;;6187236;28;20285;-83
2022/03/29 02:10:09;;;;;;;2.20;2.03;;;0.70;99.90;;;;;;6186018;28;20433;-82
2022/03/29 02:13:15;;;;;;;1.20;1.20;;;0.70;99.90;;;;;;6168475;28;20292;-82
2022/03/29 02:16:21;;;;;;;1.37;1.30;;;0.60;99.90;;;;;;6186391;28;20297;-82
2022/03/29 02:19:26;;;;;;;1.27;1.27;;;0.60;99.90;;;;;;6185944;28;20300;-82
2022/03/29 02:22:32;;;;;;;1.50;1.40;;;0.60;99.90;;;;;;6177864;28;20287;-82
2022/03/29 02:25:39;;;;;;;1.53;1.50;;;0.50;99.90;;;;;;6163016;29;20298;-83
2022/03/29 02:28:47;;;;;;;4.90;1.20;;;0.50;99.90;;;;;;6147120;29;20454;-81
2022/03/29 02:31:52;;;;;;;2.20;1.27;;;0.50;99.90;;;;;;6162989;29;20305;-82
2022/03/29 02:34:58;;;;;;;1.40;1.30;;;0.60;99.90;;;;;;6161388;29;20300;-82
2022/03/29 02:38:06;;;;;;;1.30;1.27;;;0.60;99.90;;;;;;6161791;29;20301;-83
2022/03/29 02:41:13;;;;;;;1.10;1.10;;;0.50;99.90;;;;;;6161046;29;20303;-83
2022/03/29 02:44:19;;;;;;;1.20;1.20;;;0.40;99.90;;;;;;6144317;29;20514;-83
2022/03/29 02:47:24;;;;;;;2.30;1.33;;;0.50;99.90;;;;;;6161098;29;20302;-83
2022/03/29 02:50:30;;;;;;;1.27;1.27;;;0.50;99.90;;;;;;6145039;29;20293;-83
2022/03/29 02:53:35;;;;;;;1.20;1.20;;;0.50;99.90;;;;;;6144511;29;20294;-83
2022/03/29 02:56:42;;;;;;;1.23;1.13;;;0.50;99.90;;;;;;6144981;29;20293;-82
2022/03/29 02:59:48;;;;;;;1.77;1.27;;;0.50;99.90;;;;;;6160511;28;20371;-81
2022/03/29 03:02:55;;;;;;;1.63;1.40;;;0.40;99.90;;;;;;6140318;29;20238;-82
2022/03/29 03:06:00;;;;;;;2.10;1.30;;;0.40;99.90;;;;;;6161318;29;20290;-82
2022/03/29 03:09:06;;;;;;;1.50;1.50;;;0.30;99.90;;;;;;6161078;29;20295;-82
2022/03/29 03:12:13;;;;;;;1.30;1.30;;;0.30;99.90;;;;;;6160880;28;20299;-84
2022/03/29 03:15:20;;;;;;;1.63;1.53;;;0.30;99.90;;;;;;6144277;29;20565;-82
2022/03/29 03:18:25;;;;;;;1.50;1.40;;;0.30;99.90;;;;;;6160529;28;20568;-82
2022/03/29 03:21:31;;;;;;;1.33;1.33;;;0.40;99.90;;;;;;6161285;28;20282;-81
2022/03/29 03:24:36;;;;;;;1.47;1.47;;;0.40;99.90;;;;;;6183659;28;20301;-82
2022/03/29 03:27:43;;;;;;;1.30;1.30;;;0.40;99.90;;;;;;6184961;28;20299;-82
2022/03/29 03:30:48;;;;;;;2.43;1.47;;;0.30;99.90;;;;;;6185167;28;20552;-82
2022/03/29 03:33:53;;;;;;;1.40;1.40;;;0.30;99.90;;;;;;6167176;28;20286;-82
2022/03/29 03:37:00;;;;;;;2.20;1.60;;;0.40;99.90;;;;;;6182690;28;20457;-82
2022/03/29 03:40:08;;;;;;;1.37;1.37;;;0.40;99.90;;;;;;6184927;28;20475;-82
2022/03/29 03:43:18;;;;;;;3.00;1.50;;;0.30;99.90;;;;;;6184356;28;20300;-82
2022/03/29 03:46:24;;;;;;;2.10;1.60;;;0.40;99.90;;;;;;6184642;28;20575;-83
2022/03/29 03:49:30;;;;;;;1.30;1.30;;;0.40;99.90;;;;;;6184293;28;20288;-82
2022/03/29 03:52:35;;;;;;;1.80;1.30;;;0.40;99.90;;;;;;6184380;28;20305;-82
2022/03/29 03:55:41;;;;;;;1.60;1.60;;;0.30;99.90;;;;;;6184684;28;20289;-82
2022/03/29 03:58:48;;;;;;;1.60;1.50;;;0.40;99.90;;;;;;6183789;28;20304;-82
2022/03/29 04:01:53;;;;;;;1.40;1.40;;;0.30;99.90;;;;;;6167536;28;20309;-82
2022/03/29 04:04:59;;;;;;;3.27;1.60;;;0.30;99.90;;;;;;6183691;28;20612;-83
2022/03/29 04:08:06;;;;;;;1.70;1.70;;;0.10;99.90;;;;;;6184278;28;20293;-82
2022/03/29 04:11:11;;;;;;;1.57;1.50;;;0.10;99.90;;;;;;6184578;28;20301;-82
2022/03/29 04:14:20;;;;;;;1.40;1.40;;;0.00;99.90;;;;;;6183823;28;20301;-82
2022/03/29 04:17:25;;;;;;;1.60;1.40;;;0.10;99.90;;;;;;6183831;28;20296;-82
2022/03/29 04:20:31;;;;;;;3.33;1.90;;;0.10;99.90;;;;;;6184330;28;20294;-82
2022/03/29 04:23:37;;;;;;;1.53;1.30;;;0.10;99.90;;;;;;6166378;28;20289;-82
2022/03/29 04:26:42;;;;;;;1.60;1.60;;;0.10;99.90;;;;;;6184834;28;20301;-82
2022/03/29 04:29:48;;;;;;;1.60;1.53;;;0.10;99.90;;;;;;6166427;28;20452;-82
2022/03/29 04:32:54;;;;;;;1.40;1.40;;;0.10;99.90;;;;;;6177173;28;20383;-82
2022/03/29 04:35:59;;;;;;;1.73;1.60;;;0.10;99.90;;;;;;6186850;28;20459;-82
2022/03/29 04:39:05;;;;;;;2.13;1.43;;;0.10;99.90;;;;;;6188504;28;20307;-82
2022/03/29 04:42:11;;;;;;;1.60;1.60;;;0.10;99.90;;;;;;6187455;28;20301;-82
2022/03/29 04:45:19;;;;;;;1.30;1.30;;;0.10;99.90;;;;;;6188218;28;20470;-82
2022/03/29 04:48:25;;;;;;;1.37;1.37;;;0.00;99.90;;;;;;6161586;28;20293;-82
2022/03/29 04:51:31;;;;;;;1.47;1.40;;;-0.10;99.90;;;;;;6188024;28;20301;-81
2022/03/29 04:54:36;;;;;;;1.33;1.33;;;0.00;99.90;;;;;;6187936;28;20567;-82
2022/03/29 04:57:42;;;;;;;1.50;1.40;;;0.00;99.90;;;;;;6154803;28;20300;-82
2022/03/29 05:00:50;;;;;;;1.33;1.33;;;0.00;99.90;;;;;;6188301;28;20297;-82
2022/03/29 05:03:55;;;;;;;1.83;1.60;;;0.00;99.90;;;;;;6169817;28;20288;-83
2022/03/29 05:07:01;;;;;;;1.43;1.43;;;-0.10;99.90;;;;;;6187338;28;20300;-82
2022/03/29 05:10:11;;;;;;;1.30;1.30;;;-0.10;99.90;;;;;;6180715;28;20297;-82
2022/03/29 05:13:17;;;;;;;1.60;1.50;;;-0.10;99.90;;;;;;6163685;29;20301;-83
2022/03/29 05:16:24;;;;;;;1.63;1.63;;;-0.10;99.90;;;;;;6163840;29;20296;-82
2022/03/29 05:19:29;;;;;;;1.43;1.43;;;-0.10;99.90;;;;;;6163006;29;20399;-82
2022/03/29 05:22:42;;;;;;;1.90;1.60;;;0.00;99.90;;;;;;6171447;28;20297;-82
2022/03/29 05:25:48;;;;;;;2.53;1.50;;;0.00;99.90;;;;;;6187113;28;20308;-82
2022/03/29 05:28:54;;;;;;;1.90;1.80;;;0.00;99.90;;;;;;6186890;28;20293;-82
2022/03/29 05:32:01;;;;;;;1.57;1.47;;;0.10;99.90;;;;;;6187190;28;20288;-79
2022/03/29 05:35:08;;;;;;;1.43;1.37;;;0.10;99.90;;;;;;6187621;28;20297;-79
2022/03/29 05:38:14;;;;;;;1.70;1.30;;;0.00;99.90;;;;;;6169836;28;20564;-79
2022/03/29 05:41:20;;;;;;;1.80;1.47;;;0.00;99.90;;;;;;6170424;28;20305;-80
2022/03/29 05:44:26;;;;;;;1.20;1.20;;;-0.20;99.90;;;;;;6186316;28;20305;-81
2022/03/29 05:50:56;;;;;;;1.37;1.37;;;-0.10;99.90;;;;;;6173220;28;20297;-82
2022/03/29 05:54:04;;;;;;;2.30;1.60;;;0.00;99.90;;;;;;6189010;28;20288;-83
2022/03/29 05:57:11;;;;;;;4.30;1.60;;;0.10;99.90;;;;;;6170272;28;20456;-83
2022/03/29 06:00:18;;;;;;;1.30;1.30;;;0.20;99.90;;;;;;6169772;28;20296;-82
2022/03/29 06:03:28;;;;;;;1.50;1.50;;;0.20;99.90;;;;;;6168780;28;20292;-87
2022/03/29 06:06:34;;;;;;;1.30;1.30;;;0.20;99.90;;;;;;6170026;28;20291;-80
2022/03/29 06:09:39;;;;;;;2.97;1.47;;;0.10;99.90;;;;;;6185989;28;20292;-80
2022/03/29 06:12:46;;;;;;;2.07;1.77;;;0.20;99.90;;;;;;6185976;28;20301;-80
2022/03/29 06:15:51;;;;;;;4.23;1.57;;;0.10;99.90;;;;;;6186044;28;20316;-80
2022/03/29 06:18:58;;;;;;;1.30;1.30;;;0.20;99.90;;;;;;6184309;28;20598;-80
2022/03/29 06:22:05;;;;;;;3.97;1.40;;;0.20;99.90;;;;;;6185374;28;20304;-80
2022/03/29 06:25:14;;;;;;;1.80;1.33;;;0.40;99.90;;;;;;6185087;28;20300;-80
2022/03/29 06:28:19;;;;;;;1.10;1.10;;;0.30;99.90;;;;;;6185651;28;20497;-81
2022/03/29 06:31:25;;;;;;;2.20;1.30;;;0.30;99.90;;;;;;6168789;28;20292;-83
2022/03/29 06:34:32;;;;;;;1.33;1.23;;;0.40;99.90;;;;;;6167237;28;20298;-79
2022/03/29 06:37:38;;;;;;;1.57;1.13;;;0.30;99.90;;;;;;6167830;28;20379;-81
2022/03/29 06:40:43;;;;;;;1.30;1.20;;;0.30;99.90;;;;;;6152561;28;20297;-80
2022/03/29 06:43:49;;;;;;;1.13;1.00;;;0.40;99.90;;;;;;6185194;28;20322;-81
2022/03/29 06:46:57;;;;;;;2.17;1.20;;;0.30;99.90;;;;;;6167718;28;20294;-80
2022/03/29 06:50:05;;;;;;;2.10;1.47;;;0.40;99.90;;;;;;6185428;28;20340;-80
2022/03/29 06:53:13;;;;;;;1.10;1.10;;;0.30;99.90;;;;;;6183780;28;20293;-80
2022/03/29 06:56:19;;;;;;;1.20;1.20;;;0.40;99.90;;;;;;6185504;28;20300;-80
2022/03/29 06:59:24;;;;;;;1.27;1.27;;;0.40;99.90;;;;;;6183775;28;20346;-80
2022/03/29 07:02:29;;;;;;;1.30;1.30;;;0.40;99.90;;;;;;6184584;28;20496;-80
2022/03/29 07:05:38;;;;;;;3.17;1.30;;;0.40;99.90;;;;;;6168346;28;20525;-79
2022/03/29 07:12:23;;;;;;;1.30;1.30;;;0.60;99.90;;;;;;6135393;29;20298;-79
2022/03/29 07:15:29;;;;;;;2.17;2.07;;;0.60;99.90;;;;;;6137169;29;20297;-81
2022/03/29 07:18:34;;;;;;;1.10;1.10;;;0.60;99.90;;;;;;6136378;29;20303;-79
2022/03/29 07:21:43;;;;;;;2.03;1.40;;;0.70;99.90;;;;;;6137881;29;20293;-79
2022/03/29 07:24:49;;;;;;;4.73;1.10;;;0.60;99.90;;;;;;6160574;29;20301;-79
2022/03/29 07:27:54;;;;;;;1.20;1.10;;;0.60;99.90;;;;;;6160317;29;20293;-79
2022/03/29 07:31:00;;;;;;;1.47;1.20;;;0.50;99.90;;;;;;6160598;29;20293;-80
2022/03/29 07:34:06;;;;;;;1.50;1.20;;;0.40;99.90;;;;;;6160183;29;20771;-80
2022/03/29 07:37:13;;;;;;;1.20;1.20;;;0.50;99.90;;;;;;6160561;29;20292;-79
2022/03/29 07:40:21;;;;;;;2.53;1.30;;;0.60;99.90;;;;;;6160936;29;20293;-79
2022/03/29 07:43:26;;;;;;;1.07;1.07;;;0.60;98.80;;;;;;6160387;29;20294;-79
2022/03/29 07:46:31;;;;;;;1.10;1.10;;;0.60;98.20;;;;;;6160783;29;20578;-80
2022/03/29 07:49:38;;;;;;;0.93;0.93;;;0.60;98.60;;;;;;6159247;28;20278;-80
2022/03/29 07:53:06;;;;;;;1.00;1.00;;;0.70;98.30;;;;;;6159894;29;20319;-80
2022/03/29 07:56:12;;;;;;;0.90;0.90;;;0.80;98.30;;;;;;6143514;29;20295;-80
2022/03/29 07:59:17;;;;;;;1.37;1.37;;;0.70;98.30;;;;;;6159953;29;20297;-80
2022/03/29 08:02:23;;;;;;;1.13;1.10;;;0.90;98.60;;;;;;6160114;29;20297;-79
2022/03/29 08:05:29;;;;;;;1.00;1.00;;;0.80;98.60;;;;;;6160395;29;20291;-79
2022/03/29 08:08:36;;;;;;;1.03;1.03;;;0.80;98.60;;;;;;6126826;29;20303;-80
2022/03/29 08:11:41;;;;;;;1.53;1.00;;;0.80;98.00;;;;;;6183470;28;20301;-80
2022/03/29 08:14:47;;;;;;;1.10;1.10;;;0.80;98.30;;;;;;6188651;28;20296;-80
2022/03/29 08:17:53;;;;;;;1.10;1.10;;;0.80;99.10;;;;;;6171470;28;20297;-80
2022/03/29 08:20:59;;;;;;;1.10;1.10;;;0.70;99.90;;;;;;6188541;28;20310;-80
2022/03/29 08:24:06;;;;;;;1.00;1.00;;;0.70;99.30;;;;;;6170742;28;20299;-80
2022/03/29 08:27:14;;;;;;;1.33;1.33;;;0.90;98.70;;;;;;6188129;28;20293;-80
2022/03/29 08:30:19;;;;;;;1.10;1.10;;;0.80;99.10;;;;;;6188976;28;20469;-80
2022/03/29 08:33:24;;;;;;;1.77;1.10;;;1.10;98.70;;;;;;6188337;28;20314;-80
2022/03/29 08:36:30;;;;;;;1.00;1.00;;;1.10;98.40;;;;;;6188375;28;20301;-79
2022/03/29 08:39:37;;;;;;;1.80;1.30;;;1.00;98.40;;;;;;6188031;28;20465;-81
2022/03/29 08:42:47;;;;;;;1.03;1.03;;;1.10;98.00;;;;;;6187886;28;20305;-78
2022/03/29 08:45:53;;;;;;;1.90;1.10;;;1.10;98.30;;;;;;6188597;28;20292;-79
2022/03/29 08:48:58;;;;;;;1.23;1.20;;;1.10;98.20;;;;;;6188055;28;20296;-79
2022/03/29 08:52:05;;;;;;;1.13;1.10;;;1.00;98.40;;;;;;6187826;28;20301;-79
2022/03/29 08:55:13;;;;;;;0.90;0.90;;;1.00;97.50;;;;;;6188834;28;20289;-81
2022/03/29 08:58:21;;;;;;;0.90;0.90;;;0.90;96.50;;;;;;6171666;28;20282;-79
2022/03/29 09:01:26;;;;;;;1.10;1.10;;;0.90;96.50;;;;;;6188154;28;20305;-79
2022/03/29 09:04:31;;;;;;;1.20;1.20;;;1.00;96.20;;;;;;6188143;28;20293;-79
2022/03/29 09:07:54;;;;;;;1.00;1.00;;;1.30;96.20;;;;;;6187712;28;20294;-79
2022/03/29 09:11:04;;;;;;;6.80;1.23;;;1.60;96.10;;;;;;6188639;28;20286;-79
2022/03/29 09:14:11;;;;;;;1.27;1.27;;;1.60;95.40;;;;;;6188145;28;20470;-79
2022/03/29 09:17:31;;;;;;;4.17;1.47;;;1.70;94.20;;;;;;6187846;28;20300;-79
2022/03/29 09:20:37;;;;;;;1.00;1.00;;;1.60;92.90;;;;;;6188058;28;20291;-80
2022/03/29 09:23:45;;;;;;;2.37;1.33;;;1.60;92.70;;;;;;6169178;28;20307;-78
2022/03/29 09:26:54;;;;;;;1.13;1.03;;;1.60;93.70;;;;;;6164212;29;20297;-79
2022/03/29 09:30:11;;;;;;;1.00;1.00;;;1.40;93.00;;;;;;6146421;29;20482;-80
2022/03/29 09:33:20;;;;;;;2.70;1.10;;;1.40;92.20;;;;;;6162902;28;20294;-80
2022/03/29 09:36:26;;;;;;;1.20;1.20;;;1.30;93.80;;;;;;6146650;29;20291;-79
2022/03/29 09:39:39;;;;;;;1.07;1.07;;;0.90;99.90;;;;;;6162978;28;20296;-79
2022/03/29 09:43:05;;;;;;;1.63;1.40;;;0.70;99.90;;;;;;6163304;29;20298;-79
2022/03/29 09:46:13;;;;;;;1.80;1.50;;;0.40;99.90;;;;;;6163790;29;20294;-79
2022/03/29 09:49:19;;;;;;;1.70;1.60;;;0.60;99.90;;;;;;6162877;29;20570;-79
2022/03/29 09:52:27;;;;;;;1.77;1.67;;;0.60;99.90;;;;;;6161521;29;20301;-80
2022/03/29 09:55:32;;;;;;;1.50;1.50;;;0.80;99.90;;;;;;6146172;29;20295;-80
2022/03/29 09:58:39;;;;;;;2.70;1.10;;;1.10;99.90;;;;;;6162145;28;20294;-79
2022/03/29 10:01:51;;;;;;;1.13;1.13;;;1.40;98.20;;;;;;6162795;29;20317;-79
2022/03/29 10:04:57;;;;;;;0.97;0.97;;;1.40;96.80;;;;;;6162545;29;20287;-80
2022/03/29 10:11:28;;;;;;;1.20;1.20;;;0.90;99.90;;;;;;6162547;29;20467;-79
2022/03/29 10:14:38;;;;;;;3.23;1.20;;;0.20;99.90;;;;;;6144604;29;20484;-79
2022/03/29 10:17:45;;;;;;;1.47;1.47;;;0.00;99.90;;;;;;6162070;29;20298;-81
2022/03/29 10:20:51;;;;;;;1.50;1.50;;;0.00;99.90;;;;;;6162415;29;20297;-79
2022/03/29 10:23:56;;;;;;;1.17;1.17;;;0.30;99.90;;;;;;6181220;28;20296;-79
2022/03/29 10:27:02;;;;;;;1.50;1.50;;;0.60;99.90;;;;;;6185321;28;20294;-79
2022/03/29 10:30:12;;;;;;;1.50;1.50;;;0.80;99.90;;;;;;6185850;28;20293;-81
2022/03/29 10:33:19;;;;;;;1.40;1.30;;;1.10;99.90;;;;;;6185510;28;20302;-78
2022/03/29 10:36:25;;;;;;;1.80;1.20;;;1.00;99.90;;;;;;6186546;28;20567;-78
2022/03/29 10:39:53;;;;;;;1.30;1.30;;;0.60;99.90;;;;;;6185809;28;20298;-80
2022/03/29 10:43:32;;;;;;;1.00;0.97;;;0.30;99.90;;;;;;6182641;28;20293;-79
2022/03/29 10:46:41;;;;;;;1.00;1.00;;;0.30;99.90;;;;;;6185654;28;20327;-79
2022/03/29 10:49:50;;;;;;;1.10;1.10;;;0.10;99.90;;;;;;6185010;28;20309;-79
2022/03/29 10:52:55;;;;;;;1.00;1.00;;;0.10;99.90;;;;;;6184769;28;20411;-79
2022/03/29 10:56:25;;;;;;;2.10;1.07;;;0.10;99.90;;;;;;6185497;28;20289;-80
2022/03/29 10:59:33;;;;;;;1.20;1.20;;;0.20;99.90;;;;;;6185098;28;20302;-78
2022/03/29 11:02:41;;;;;;;1.60;1.10;;;0.40;99.90;;;;;;6167259;28;20294;-79
2022/03/29 11:06:08;;;;;;;1.10;1.10;;;0.40;99.90;;;;;;6186188;28;20550;-81
2022/03/29 11:09:18;;;;;;;2.17;1.10;;;0.30;99.90;;;;;;6185599;28;20282;-81
2022/03/29 11:12:48;;;;;;;1.30;1.30;;;0.40;99.90;;;;;;6160855;28;20297;-81
2022/03/29 11:16:00;;;;;;;1.33;1.20;;;0.60;99.90;;;;;;6161644;29;20310;-81
2022/03/29 11:19:05;;;;;;;1.20;1.20;;;0.70;99.90;;;;;;6160634;29;20297;-81
2022/03/29 11:22:43;;;;;;;1.70;1.20;;;0.80;99.90;;;;;;6160240;29;20307;-81
2022/03/29 11:25:50;;;;;;;1.37;1.37;;;1.10;99.90;;;;;;6161060;29;20291;-81
2022/03/29 11:29:02;;;;;;;1.10;1.10;;;1.30;99.90;;;;;;6159687;29;20305;-81
2022/03/29 11:32:13;;;;;;;1.30;1.30;;;1.50;99.90;;;;;;6160003;28;20297;-81
2022/03/29 11:35:20;;;;;;;0.90;0.80;;;1.30;99.80;;;;;;6161057;29;20290;-81
2022/03/29 11:38:27;;;;;;;1.20;1.20;;;1.00;98.70;;;;;;6160203;29;20485;-81
2022/03/29 11:41:34;;;;;;;1.30;1.30;;;0.90;99.20;;;;;;6160849;29;20299;-81
2022/03/29 11:44:40;;;;;;;2.73;1.20;;;0.90;99.40;;;;;;6160801;28;20305;-81
2022/03/29 11:47:55;;;;;;;1.10;1.10;;;0.60;99.90;;;;;;6165365;29;20298;-81
2022/03/29 11:51:02;;;;;;;1.37;1.20;;;0.60;99.90;;;;;;6165607;29;20445;-81
2022/03/29 11:54:07;;;;;;;2.30;1.20;;;0.50;99.90;;;;;;6164038;29;20289;-81
2022/03/29 11:57:23;;;;;;;1.63;1.10;;;0.30;99.90;;;;;;6148088;28;20293;-81
2022/03/29 12:00:29;;;;;;;1.20;1.20;;;0.30;99.90;;;;;;6165616;29;20295;-81
2022/03/29 12:03:38;;;;;;;1.40;1.40;;;0.50;99.90;;;;;;6164654;29;20285;-81
2022/03/29 12:06:48;;;;;;;1.30;1.30;;;0.60;99.90;;;;;;6165394;29;20317;-80
2022/03/29 12:09:53;;;;;;;1.20;1.20;;;0.60;99.90;;;;;;6169241;28;20301;-81
2022/03/29 12:12:59;;;;;;;1.80;1.17;;;0.60;99.90;;;;;;6188636;28;20297;-81
2022/03/29 12:16:21;;;;;;;1.20;1.20;;;0.60;99.90;;;;;;6188837;28;20300;-81
2022/03/29 12:19:29;;;;;;;1.10;1.10;;;0.80;99.90;;;;;;6188208;28;20305;-81
2022/03/29 12:22:34;;;;;;;1.80;1.70;;;0.70;99.90;;;;;;6188155;28;20289;-81
2022/03/29 12:25:40;;;;;;;2.63;1.33;;;0.80;99.90;;;;;;6188898;28;20284;-81
2022/03/29 12:28:46;;;;;;;1.20;1.20;;;0.90;99.90;;;;;;6188181;28;20293;-81
2022/03/29 12:31:52;;;;;;;0.97;0.97;;;1.00;99.90;;;;;;6189167;28;20291;-81
2022/03/29 12:35:01;;;;;;;1.13;1.13;;;1.20;99.90;;;;;;6188520;28;20297;-81
2022/03/29 12:38:11;;;;;;;4.33;1.40;;;1.30;99.30;;;;;;6188269;28;20591;-81
2022/03/29 12:41:32;;;;;;;1.37;1.37;;;1.50;98.80;;;;;;6171004;28;20295;-81
2022/03/29 12:44:46;;;;;;;1.20;1.20;;;1.30;98.20;;;;;;6187997;28;20299;-81
2022/03/29 12:47:51;;;;;;;1.10;1.10;;;0.80;99.90;;;;;;6188082;28;20306;-81
2022/03/29 12:51:04;;;;;;;1.10;1.10;;;0.60;99.90;;;;;;6171153;28;20309;-81
2022/03/29 12:54:12;;;;;;;2.07;1.00;;;0.50;99.90;;;;;;6187667;28;20474;-81
2022/03/29 12:57:20;;;;;;;1.27;1.27;;;0.20;99.90;;;;;;6188275;28;20290;-81
2022/03/29 13:00:26;;;;;;;1.10;1.10;;;0.10;99.90;;;;;;6186954;28;20288;-80
2022/03/29 13:03:38;;;;;;;1.00;1.00;;;0.20;99.90;;;;;;6187842;28;20300;-80
2022/03/29 13:06:46;;;;;;;1.10;1.10;;;0.20;99.90;;;;;;6170586;28;20308;-80
2022/03/29 13:10:03;;;;;;;1.23;1.20;;;0.50;99.90;;;;;;6170236;28;20465;-80
2022/03/29 13:13:29;;;;;;;1.03;1.03;;;0.80;99.90;;;;;;6186828;28;20327;-80
2022/03/29 13:16:34;;;;;;;1.20;1.20;;;0.80;99.80;;;;;;6170730;28;20475;-80
2022/03/29 13:19:54;;;;;;;1.10;1.10;;;0.80;99.50;;;;;;6187148;28;20492;-80
2022/03/29 13:23:00;;;;;;;1.20;1.20;;;0.80;95.90;;;;;;6175360;28;20301;-80
2022/03/29 13:26:08;;;;;;;1.20;1.20;;;0.80;94.20;;;;;;6146694;29;20293;-81
2022/03/29 13:29:15;;;;;;;1.20;1.10;;;0.80;92.50;;;;;;6162901;29;20291;-80
2022/03/29 13:32:20;;;;;;;1.10;1.10;;;0.80;93.20;;;;;;6163067;28;20304;-80
2022/03/29 13:35:26;;;;;;;1.30;1.30;;;0.70;92.40;;;;;;6146440;29;20612;-80
2022/03/29 13:38:34;;;;;;;1.23;1.23;;;0.70;92.60;;;;;;6145763;29;20298;-81
2022/03/29 13:41:39;;;;;;;1.17;1.17;;;0.60;91.70;;;;;;6163452;29;20302;-81
2022/03/29 13:44:45;;;;;;;1.23;1.23;;;0.50;92.20;;;;;;6146100;29;20296;-80
2022/03/29 13:47:50;;;;;;;1.20;1.20;;;0.60;91.90;;;;;;6163809;29;20294;-81
2022/03/29 13:50:58;;;;;;;1.00;1.00;;;0.60;90.60;;;;;;6163123;29;20302;-80
2022/03/29 13:54:05;;;;;;;1.17;1.17;;;0.50;88.40;;;;;;6162354;29;20309;-80
2022/03/29 13:57:10;;;;;;;2.10;1.00;;;0.60;86.90;;;;;;6161756;29;20295;-80
2022/03/29 14:00:17;;;;;;;1.17;1.17;;;0.70;81.80;;;;;;6163686;29;20310;-80
2022/03/29 14:03:23;;;;;;;1.57;1.20;;;0.90;80.60;;;;;;6162194;29;20310;-80
2022/03/29 14:06:28;;;;;;;3.13;1.10;;;0.90;73.30;;;;;;6145253;29;20289;-80
2022/03/29 14:09:36;;;;;;;1.20;1.20;;;0.90;77.30;;;;;;6144141;29;20231;-80
2022/03/29 14:12:41;;;;;;;1.27;1.10;;;0.90;73.60;;;;;;6145161;29;20302;-80
2022/03/29 14:15:48;;;;;;;1.00;1.00;;;0.70;74.30;;;;;;6145777;29;20304;-80
2022/03/29 14:18:54;;;;;;;1.27;1.27;;;0.70;75.90;;;;;;6161991;29;20303;-80
2022/03/29 14:21:59;;;;;;;1.70;1.20;;;0.90;75.40;;;;;;6164926;28;20298;-81
2022/03/29 14:25:07;;;;;;;2.10;1.60;;;1.00;72.70;;;;;;6185842;28;20318;-80
2022/03/29 14:28:14;;;;;;;1.60;1.27;;;1.20;68.70;;;;;;6185188;28;20298;-79
2022/03/29 14:31:20;;;;;;;1.90;1.20;;;1.30;74.70;;;;;;6185890;28;20293;-80
2022/03/29 14:34:26;;;;;;;1.10;1.10;;;1.20;69.60;;;;;;6185084;28;20297;-80
2022/03/29 14:37:32;;;;;;;1.30;1.30;;;1.10;65.20;;;;;;6184150;28;20295;-80
2022/03/29 14:40:39;;;;;;;1.13;1.13;;;1.20;65.70;;;;;;6168475;28;20289;-80
2022/03/29 14:43:44;;;;;;;1.27;1.27;;;0.90;64.20;;;;;;6184992;28;20613;-80
2022/03/29 14:46:56;;;;;;;1.23;1.13;;;0.70;62.50;;;;;;6186023;28;20301;-81
2022/03/29 14:50:03;;;;;;;3.50;1.17;;;0.80;67.70;;;;;;6168750;28;20290;-80
2022/03/29 14:53:10;;;;;;;0.90;0.90;;;0.60;65.20;;;;;;6184924;28;20297;-80
2022/03/29 14:56:17;;;;;;;4.73;1.23;;;0.50;64.70;;;;;;6185208;28;20478;-81
2022/03/29 14:59:23;;;;;;;3.13;1.50;;;0.50;67.10;;;;;;6177336;28;20293;-81
2022/03/29 15:02:30;;;;;;;3.10;1.10;;;0.50;66.40;;;;;;6184460;28;20293;-81
2022/03/29 15:05:36;;;;;;;1.43;1.30;;;0.40;63.30;;;;;;6167937;28;20293;-81
2022/03/29 15:08:42;;;;;;;1.00;1.00;;;0.30;61.40;;;;;;6184655;28;20298;-81
2022/03/29 15:11:49;;;;;;;1.10;1.10;;;0.30;58.10;;;;;;6184679;28;20482;-81
2022/03/29 15:14:54;;;;;;;1.00;1.00;;;0.30;56.50;;;;;;6184925;28;20296;-81
2022/03/29 15:18:00;;;;;;;1.50;1.50;;;0.30;54.00;;;;;;6184550;28;20293;-81
2022/03/29 15:21:06;;;;;;;3.20;1.10;;;0.30;54.60;;;;;;6167005;28;20300;-82
2022/03/29 15:24:12;;;;;;;1.47;1.03;;;0.40;55.70;;;;;;6184050;28;20305;-81
2022/03/29 15:27:19;;;;;;;1.03;1.03;;;0.30;52.60;;;;;;6185033;28;20564;-80
2022/03/29 15:30:24;;;;;;;1.10;1.10;;;0.30;51.80;;;;;;6184968;28;20301;-81
2022/03/29 15:33:31;;;;;;;2.33;1.40;;;0.30;52.60;;;;;;6184140;28;20309;-81
2022/03/29 15:36:40;;;;;;;1.23;1.23;;;0.20;53.50;;;;;;6183226;28;20292;-80
2022/03/29 15:39:48;;;;;;;1.37;1.10;;;0.30;53.00;;;;;;6166893;28;20306;-80
2022/03/29 15:42:55;;;;;;;2.30;0.93;;;0.20;52.40;;;;;;6167097;28;20570;-80
2022/03/29 15:46:00;;;;;;;5.20;1.13;;;0.20;52.30;;;;;;6184715;28;20289;-79
2022/03/29 15:49:05;;;;;;;1.20;1.10;;;0.10;51.50;;;;;;6150815;28;20297;-81
2022/03/29 15:52:13;;;;;;;1.23;1.10;;;0.20;52.00;;;;;;6183995;28;20575;-81
2022/03/29 15:55:19;;;;;;;1.13;1.13;;;0.10;52.20;;;;;;6167644;28;20299;-79
2022/03/29 15:58:26;;;;;;;1.30;1.30;;;0.10;51.50;;;;;;6167044;28;20296;-80
2022/03/29 16:01:52;;;;;;;1.10;1.10;;;0.10;52.00;;;;;;6167438;28;20315;-81
2022/03/29 16:04:58;;;;;;;1.40;1.30;;;0.10;51.60;;;;;;6184029;28;20290;-80
2022/03/29 16:08:03;;;;;;;1.67;1.57;;;0.00;51.30;;;;;;6183678;28;20295;-80
2022/03/29 16:11:11;;;;;;;3.63;1.30;;;0.00;51.10;;;;;;6183211;28;20300;-81
2022/03/29 16:14:20;;;;;;;1.20;1.20;;;0.10;52.00;;;;;;6166988;28;20304;-81
2022/03/29 16:17:26;;;;;;;1.30;1.30;;;0.10;53.60;;;;;;6184195;28;20571;-80
2022/03/29 16:20:33;;;;;;;1.20;1.20;;;0.10;51.60;;;;;;6142824;28;20296;-80
2022/03/29 16:23:38;;;;;;;1.40;1.40;;;0.10;51.50;;;;;;6166175;28;20301;-76
2022/03/29 16:26:44;;;;;;;1.40;1.40;;;0.20;52.10;;;;;;6183452;28;20298;-80
2022/03/29 16:29:51;;;;;;;1.80;1.20;;;0.20;60.30;;;;;;6166710;28;20306;-80
2022/03/29 16:32:57;;;;;;;1.10;1.10;;;0.20;75.50;;;;;;6139271;28;20300;-81
2022/03/29 16:36:03;;;;;;;1.10;1.10;;;0.20;85.80;;;;;;6188945;28;20285;-82
2022/03/29 16:39:10;;;;;;;1.00;1.00;;;0.20;90.90;;;;;;6188536;28;20292;-83
2022/03/29 16:42:21;;;;;;;1.10;1.10;;;0.00;92.00;;;;;;6189122;28;20603;-81
2022/03/29 16:45:28;;;;;;;1.90;1.10;;;-0.10;94.00;;;;;;6189287;28;20516;-82